sensor_id;sensor_type;location;lat;lon;timestamp;P1;durP1;ratioP1;P2;durP2;ratioP2
28130;SDS011;15418;42.634;23.374;2022-09-03T00:02:06;12.98;;;8.25;;
28130;SDS011;15418;42.634;23.374;2022-09-03T00:04:37;10.98;;;7.60;;
28130;SDS011;15418;42.634;23.374;2022-09-03T00:07:16;10.35;;;7.82;;
28130;SDS011;15418;42.634;23.374;2022-09-03T00:09:50;14.20;;;7.32;;
28130;SDS011;15418;42.634;23.374;2022-09-03T00:12:25;13.90;;;7.40;;
28130;SDS011;15418;42.634;23.374;2022-09-03T00:14:59;13.50;;;8.27;;
28130;SDS011;15418;42.634;23.374;2022-09-03T00:17:30;13.30;;;7.55;;
28130;SDS011;15418;42.634;23.374;2022-09-03T00:20:07;14.10;;;8.52;;
28130;SDS011;15418;42.634;23.374;2022-09-03T00:22:39;12.90;;;8.35;;
28130;SDS011;15418;42.634;23.374;2022-09-03T00:25:11;12.35;;;7.82;;
28130;SDS011;15418;42.634;23.374;2022-09-03T00:27:40;10.85;;;7.53;;
28130;SDS011;15418;42.634;23.374;2022-09-03T00:30:10;11.07;;;8.35;;
28130;SDS011;15418;42.634;23.374;2022-09-03T00:32:44;13.68;;;7.75;;
28130;SDS011;15418;42.634;23.374;2022-09-03T00:37:58;14.40;;;7.57;;
28130;SDS011;15418;42.634;23.374;2022-09-03T00:40:36;10.43;;;7.80;;
28130;SDS011;15418;42.634;23.374;2022-09-03T01:00:06;13.85;;;8.88;;
28130;SDS011;15418;42.634;23.374;2022-09-03T01:02:46;12.63;;;8.50;;
28130;SDS011;15418;42.634;23.374;2022-09-03T01:13:35;16.90;;;9.57;;
28130;SDS011;15418;42.634;23.374;2022-09-03T01:30:42;14.52;;;8.90;;
28130;SDS011;15418;42.634;23.374;2022-09-03T01:39:16;14.20;;;9.40;;
28130;SDS011;15418;42.634;23.374;2022-09-03T01:50:40;13.52;;;8.35;;
28130;SDS011;15418;42.634;23.374;2022-09-03T01:56:23;12.85;;;8.93;;
28130;SDS011;15418;42.634;23.374;2022-09-03T01:59:06;15.77;;;9.90;;
28130;SDS011;15418;42.634;23.374;2022-09-03T02:01:48;16.65;;;9.60;;
28130;SDS011;15418;42.634;23.374;2022-09-03T02:04:24;14.80;;;9.38;;
28130;SDS011;15418;42.634;23.374;2022-09-03T02:06:51;12.43;;;8.32;;
28130;SDS011;15418;42.634;23.374;2022-09-03T02:09:18;15.00;;;8.73;;
28130;SDS011;15418;42.634;23.374;2022-09-03T02:11:45;10.77;;;8.43;;
28130;SDS011;15418;42.634;23.374;2022-09-03T02:14:36;14.65;;;9.30;;
28130;SDS011;15418;42.634;23.374;2022-09-03T02:17:01;16.52;;;9.18;;
28130;SDS011;15418;42.634;23.374;2022-09-03T02:19:29;14.73;;;8.00;;
28130;SDS011;15418;42.634;23.374;2022-09-03T02:21:55;12.55;;;8.57;;
28130;SDS011;15418;42.634;23.374;2022-09-03T02:24:22;12.65;;;8.52;;
28130;SDS011;15418;42.634;23.374;2022-09-03T02:26:49;16.88;;;9.15;;
28130;SDS011;15418;42.634;23.374;2022-09-03T02:29:15;13.02;;;8.50;;
28130;SDS011;15418;42.634;23.374;2022-09-03T02:31:41;12.32;;;7.72;;
28130;SDS011;15418;42.634;23.374;2022-09-03T02:34:07;12.80;;;8.85;;
28130;SDS011;15418;42.634;23.374;2022-09-03T02:36:34;14.48;;;9.40;;
28130;SDS011;15418;42.634;23.374;2022-09-03T02:39:02;11.95;;;8.63;;
28130;SDS011;15418;42.634;23.374;2022-09-03T02:41:29;13.23;;;9.25;;
28130;SDS011;15418;42.634;23.374;2022-09-03T02:44:17;17.73;;;9.18;;
28130;SDS011;15418;42.634;23.374;2022-09-03T02:46:45;17.17;;;9.52;;
28130;SDS011;15418;42.634;23.374;2022-09-03T02:49:15;12.07;;;8.70;;
28130;SDS011;15418;42.634;23.374;2022-09-03T02:51:41;11.52;;;9.00;;
28130;SDS011;15418;42.634;23.374;2022-09-03T02:54:08;12.75;;;8.60;;
28130;SDS011;15418;42.634;23.374;2022-09-03T02:56:34;11.15;;;8.38;;
28130;SDS011;15418;42.634;23.374;2022-09-03T02:59:00;13.40;;;9.18;;
28130;SDS011;15418;42.634;23.374;2022-09-03T03:01:27;11.50;;;8.40;;
28130;SDS011;15418;42.634;23.374;2022-09-03T03:03:52;14.48;;;8.80;;
28130;SDS011;15418;42.634;23.374;2022-09-03T03:06:18;13.25;;;8.98;;
28130;SDS011;15418;42.634;23.374;2022-09-03T03:08:44;12.18;;;9.15;;
28130;SDS011;15418;42.634;23.374;2022-09-03T03:11:11;19.33;;;9.23;;
28130;SDS011;15418;42.634;23.374;2022-09-03T03:13:37;16.33;;;9.35;;
28130;SDS011;15418;42.634;23.374;2022-09-03T03:16:03;13.25;;;9.65;;
28130;SDS011;15418;42.634;23.374;2022-09-03T03:18:32;13.50;;;9.60;;
28130;SDS011;15418;42.634;23.374;2022-09-03T03:21:05;15.45;;;9.00;;
28130;SDS011;15418;42.634;23.374;2022-09-03T03:23:33;15.70;;;10.77;;
28130;SDS011;15418;42.634;23.374;2022-09-03T03:26:00;17.23;;;11.27;;
28130;SDS011;15418;42.634;23.374;2022-09-03T03:28:27;14.95;;;9.23;;
28130;SDS011;15418;42.634;23.374;2022-09-03T03:30:52;14.88;;;10.73;;
28130;SDS011;15418;42.634;23.374;2022-09-03T03:33:18;15.65;;;9.60;;
28130;SDS011;15418;42.634;23.374;2022-09-03T03:35:44;13.52;;;9.02;;
28130;SDS011;15418;42.634;23.374;2022-09-03T03:38:10;15.50;;;9.70;;
28130;SDS011;15418;42.634;23.374;2022-09-03T03:40:37;14.65;;;9.35;;
28130;SDS011;15418;42.634;23.374;2022-09-03T03:43:02;14.20;;;9.00;;
28130;SDS011;15418;42.634;23.374;2022-09-03T03:45:28;14.10;;;9.90;;
28130;SDS011;15418;42.634;23.374;2022-09-03T03:47:57;14.32;;;8.70;;
28130;SDS011;15418;42.634;23.374;2022-09-03T03:50:26;15.48;;;9.98;;
28130;SDS011;15418;42.634;23.374;2022-09-03T03:52:51;16.73;;;10.80;;
28130;SDS011;15418;42.634;23.374;2022-09-03T03:55:17;18.85;;;10.00;;
28130;SDS011;15418;42.634;23.374;2022-09-03T03:57:42;15.40;;;10.05;;
28130;SDS011;15418;42.634;23.374;2022-09-03T04:00:08;12.95;;;9.40;;
28130;SDS011;15418;42.634;23.374;2022-09-03T04:02:34;14.55;;;9.48;;
28130;SDS011;15418;42.634;23.374;2022-09-03T04:05:00;13.52;;;9.30;;
28130;SDS011;15418;42.634;23.374;2022-09-03T04:07:26;15.05;;;10.95;;
28130;SDS011;15418;42.634;23.374;2022-09-03T04:09:51;18.80;;;10.02;;
28130;SDS011;15418;42.634;23.374;2022-09-03T04:12:17;15.13;;;9.95;;
28130;SDS011;15418;42.634;23.374;2022-09-03T04:14:43;12.07;;;8.88;;
28130;SDS011;15418;42.634;23.374;2022-09-03T04:17:08;13.85;;;9.23;;
28130;SDS011;15418;42.634;23.374;2022-09-03T04:19:34;14.85;;;9.43;;
28130;SDS011;15418;42.634;23.374;2022-09-03T04:21:59;16.52;;;9.88;;
28130;SDS011;15418;42.634;23.374;2022-09-03T04:24:25;13.00;;;8.90;;
28130;SDS011;15418;42.634;23.374;2022-09-03T04:26:51;17.83;;;10.25;;
28130;SDS011;15418;42.634;23.374;2022-09-03T04:29:18;16.35;;;10.30;;
28130;SDS011;15418;42.634;23.374;2022-09-03T04:31:43;17.52;;;10.13;;
28130;SDS011;15418;42.634;23.374;2022-09-03T04:34:29;19.15;;;10.68;;
28130;SDS011;15418;42.634;23.374;2022-09-03T04:36:54;15.50;;;9.73;;
28130;SDS011;15418;42.634;23.374;2022-09-03T04:39:21;25.13;;;12.68;;
28130;SDS011;15418;42.634;23.374;2022-09-03T04:41:47;15.95;;;9.52;;
28130;SDS011;15418;42.634;23.374;2022-09-03T04:44:12;16.70;;;10.23;;
28130;SDS011;15418;42.634;23.374;2022-09-03T04:46:38;17.00;;;9.60;;
28130;SDS011;15418;42.634;23.374;2022-09-03T04:49:04;23.75;;;9.15;;
28130;SDS011;15418;42.634;23.374;2022-09-03T04:51:33;19.15;;;9.25;;
28130;SDS011;15418;42.634;23.374;2022-09-03T04:54:02;16.17;;;9.98;;
28130;SDS011;15418;42.634;23.374;2022-09-03T04:56:29;12.02;;;8.93;;
28130;SDS011;15418;42.634;23.374;2022-09-03T04:59:00;20.48;;;9.63;;
28130;SDS011;15418;42.634;23.374;2022-09-03T05:01:28;16.35;;;9.95;;
28130;SDS011;15418;42.634;23.374;2022-09-03T05:03:56;14.80;;;8.98;;
28130;SDS011;15418;42.634;23.374;2022-09-03T05:06:22;16.40;;;9.50;;
28130;SDS011;15418;42.634;23.374;2022-09-03T05:08:50;16.10;;;8.45;;
28130;SDS011;15418;42.634;23.374;2022-09-03T05:11:17;23.40;;;8.77;;
28130;SDS011;15418;42.634;23.374;2022-09-03T05:13:45;13.35;;;8.20;;
28130;SDS011;15418;42.634;23.374;2022-09-03T05:16:13;15.50;;;9.38;;
28130;SDS011;15418;42.634;23.374;2022-09-03T05:18:38;10.73;;;8.07;;
28130;SDS011;15418;42.634;23.374;2022-09-03T05:21:06;10.63;;;7.40;;
28130;SDS011;15418;42.634;23.374;2022-09-03T05:23:35;10.23;;;7.93;;
28130;SDS011;15418;42.634;23.374;2022-09-03T05:26:02;11.77;;;8.18;;
28130;SDS011;15418;42.634;23.374;2022-09-03T05:28:33;14.23;;;8.63;;
28130;SDS011;15418;42.634;23.374;2022-09-03T05:31:01;13.30;;;8.95;;
28130;SDS011;15418;42.634;23.374;2022-09-03T05:33:28;14.38;;;8.43;;
28130;SDS011;15418;42.634;23.374;2022-09-03T05:35:59;18.20;;;8.93;;
28130;SDS011;15418;42.634;23.374;2022-09-03T05:38:28;14.27;;;9.75;;
28130;SDS011;15418;42.634;23.374;2022-09-03T05:40:57;15.30;;;9.48;;
28130;SDS011;15418;42.634;23.374;2022-09-03T05:43:24;17.98;;;9.70;;
28130;SDS011;15418;42.634;23.374;2022-09-03T05:45:49;15.60;;;9.27;;
28130;SDS011;15418;42.634;23.374;2022-09-03T05:48:14;13.73;;;9.00;;
28130;SDS011;15418;42.634;23.374;2022-09-03T05:50:40;14.32;;;8.25;;
28130;SDS011;15418;42.634;23.374;2022-09-03T05:53:05;16.92;;;8.80;;
28130;SDS011;15418;42.634;23.374;2022-09-03T05:55:31;11.05;;;7.68;;
28130;SDS011;15418;42.634;23.374;2022-09-03T05:57:57;8.98;;;7.50;;
28130;SDS011;15418;42.634;23.374;2022-09-03T06:00:22;9.80;;;7.53;;
28130;SDS011;15418;42.634;23.374;2022-09-03T06:02:51;14.88;;;8.45;;
28130;SDS011;15418;42.634;23.374;2022-09-03T06:05:17;21.88;;;8.55;;
28130;SDS011;15418;42.634;23.374;2022-09-03T06:07:44;10.57;;;7.10;;
28130;SDS011;15418;42.634;23.374;2022-09-03T06:10:12;9.23;;;7.40;;
28130;SDS011;15418;42.634;23.374;2022-09-03T06:12:40;15.55;;;8.73;;
28130;SDS011;15418;42.634;23.374;2022-09-03T06:15:06;18.25;;;7.95;;
28130;SDS011;15418;42.634;23.374;2022-09-03T06:17:32;14.52;;;7.22;;
28130;SDS011;15418;42.634;23.374;2022-09-03T06:19:58;9.90;;;7.20;;
28130;SDS011;15418;42.634;23.374;2022-09-03T06:22:23;9.82;;;7.40;;
28130;SDS011;15418;42.634;23.374;2022-09-03T06:24:52;9.48;;;6.57;;
28130;SDS011;15418;42.634;23.374;2022-09-03T06:27:18;12.30;;;6.72;;
28130;SDS011;15418;42.634;23.374;2022-09-03T06:29:45;10.02;;;7.13;;
28130;SDS011;15418;42.634;23.374;2022-09-03T06:32:10;15.02;;;8.13;;
28130;SDS011;15418;42.634;23.374;2022-09-03T06:34:36;9.50;;;7.07;;
28130;SDS011;15418;42.634;23.374;2022-09-03T06:37:01;12.77;;;7.22;;
28130;SDS011;15418;42.634;23.374;2022-09-03T06:39:27;15.52;;;8.70;;
28130;SDS011;15418;42.634;23.374;2022-09-03T06:41:52;14.98;;;8.07;;
28130;SDS011;15418;42.634;23.374;2022-09-03T06:44:19;9.50;;;7.45;;
28130;SDS011;15418;42.634;23.374;2022-09-03T06:46:44;7.88;;;6.88;;
28130;SDS011;15418;42.634;23.374;2022-09-03T06:49:11;9.05;;;6.70;;
28130;SDS011;15418;42.634;23.374;2022-09-03T06:51:37;10.10;;;6.65;;
28130;SDS011;15418;42.634;23.374;2022-09-03T06:54:07;19.63;;;7.82;;
28130;SDS011;15418;42.634;23.374;2022-09-03T06:56:35;8.80;;;7.18;;
28130;SDS011;15418;42.634;23.374;2022-09-03T06:59:08;16.38;;;8.68;;
28130;SDS011;15418;42.634;23.374;2022-09-03T07:01:38;12.45;;;7.63;;
28130;SDS011;15418;42.634;23.374;2022-09-03T07:04:05;10.75;;;7.70;;
28130;SDS011;15418;42.634;23.374;2022-09-03T07:06:36;11.32;;;7.75;;
28130;SDS011;15418;42.634;23.374;2022-09-03T07:09:07;11.20;;;7.75;;
28130;SDS011;15418;42.634;23.374;2022-09-03T07:11:33;19.55;;;8.68;;
28130;SDS011;15418;42.634;23.374;2022-09-03T07:14:00;10.98;;;7.35;;
28130;SDS011;15418;42.634;23.374;2022-09-03T07:16:28;8.70;;;6.57;;
28130;SDS011;15418;42.634;23.374;2022-09-03T07:18:57;11.40;;;7.97;;
28130;SDS011;15418;42.634;23.374;2022-09-03T07:21:24;9.55;;;6.70;;
28130;SDS011;15418;42.634;23.374;2022-09-03T07:23:52;10.35;;;6.97;;
28130;SDS011;15418;42.634;23.374;2022-09-03T07:26:20;14.55;;;7.22;;
28130;SDS011;15418;42.634;23.374;2022-09-03T07:28:56;10.02;;;7.18;;
28130;SDS011;15418;42.634;23.374;2022-09-03T07:31:23;11.20;;;6.68;;
28130;SDS011;15418;42.634;23.374;2022-09-03T07:33:54;13.32;;;6.43;;
28130;SDS011;15418;42.634;23.374;2022-09-03T07:36:21;7.68;;;6.75;;
28130;SDS011;15418;42.634;23.374;2022-09-03T07:38:48;10.25;;;7.10;;
28130;SDS011;15418;42.634;23.374;2022-09-03T07:41:14;18.05;;;7.82;;
28130;SDS011;15418;42.634;23.374;2022-09-03T07:43:43;11.90;;;6.95;;
28130;SDS011;15418;42.634;23.374;2022-09-03T07:46:14;9.87;;;5.93;;
28130;SDS011;15418;42.634;23.374;2022-09-03T07:48:50;9.73;;;6.13;;
28130;SDS011;15418;42.634;23.374;2022-09-03T07:51:18;11.55;;;6.60;;
28130;SDS011;15418;42.634;23.374;2022-09-03T07:53:45;11.45;;;7.00;;
28130;SDS011;15418;42.634;23.374;2022-09-03T07:56:16;17.02;;;7.60;;
28130;SDS011;15418;42.634;23.374;2022-09-03T07:58:41;7.85;;;6.03;;
28130;SDS011;15418;42.634;23.374;2022-09-03T08:01:11;14.70;;;6.03;;
28130;SDS011;15418;42.634;23.374;2022-09-03T08:03:43;8.95;;;6.53;;
28130;SDS011;15418;42.634;23.374;2022-09-03T08:06:13;7.88;;;5.80;;
28130;SDS011;15418;42.634;23.374;2022-09-03T08:08:40;10.57;;;5.68;;
28130;SDS011;15418;42.634;23.374;2022-09-03T08:11:06;12.35;;;5.63;;
28130;SDS011;15418;42.634;23.374;2022-09-03T08:16:16;7.22;;;5.30;;
28130;SDS011;15418;42.634;23.374;2022-09-03T08:18:42;6.20;;;4.93;;
28130;SDS011;15418;42.634;23.374;2022-09-03T08:21:15;9.13;;;5.47;;
28130;SDS011;15418;42.634;23.374;2022-09-03T08:23:43;8.50;;;5.55;;
28130;SDS011;15418;42.634;23.374;2022-09-03T08:26:10;7.80;;;4.80;;
28130;SDS011;15418;42.634;23.374;2022-09-03T08:28:36;5.93;;;4.80;;
28130;SDS011;15418;42.634;23.374;2022-09-03T08:31:06;8.77;;;4.95;;
28130;SDS011;15418;42.634;23.374;2022-09-03T08:33:38;8.40;;;5.30;;
28130;SDS011;15418;42.634;23.374;2022-09-03T08:36:19;9.80;;;6.97;;
28130;SDS011;15418;42.634;23.374;2022-09-03T08:38:49;6.22;;;4.97;;
28130;SDS011;15418;42.634;23.374;2022-09-03T08:49:20;9.27;;;6.03;;
28130;SDS011;15418;42.634;23.374;2022-09-03T08:52:00;13.55;;;7.88;;
28130;SDS011;15418;42.634;23.374;2022-09-03T08:54:30;9.20;;;5.78;;
28130;SDS011;15418;42.634;23.374;2022-09-03T08:56:58;8.45;;;6.10;;
28130;SDS011;15418;42.634;23.374;2022-09-03T08:59:27;7.18;;;6.15;;
28130;SDS011;15418;42.634;23.374;2022-09-03T09:02:00;8.55;;;5.55;;
28130;SDS011;15418;42.634;23.374;2022-09-03T09:04:46;7.72;;;6.65;;
28130;SDS011;15418;42.634;23.374;2022-09-03T09:07:17;11.10;;;6.03;;
28130;SDS011;15418;42.634;23.374;2022-09-03T09:21:14;10.55;;;6.30;;
28130;SDS011;15418;42.634;23.374;2022-09-03T09:23:46;18.85;;;7.13;;
28130;SDS011;15418;42.634;23.374;2022-09-03T09:26:15;8.77;;;6.57;;
28130;SDS011;15418;42.634;23.374;2022-09-03T09:28:42;14.70;;;7.55;;
28130;SDS011;15418;42.634;23.374;2022-09-03T09:31:11;11.73;;;6.82;;
28130;SDS011;15418;42.634;23.374;2022-09-03T09:33:42;9.27;;;6.47;;
28130;SDS011;15418;42.634;23.374;2022-09-03T09:36:10;7.45;;;5.93;;
28130;SDS011;15418;42.634;23.374;2022-09-03T09:38:40;9.18;;;6.07;;
28130;SDS011;15418;42.634;23.374;2022-09-03T09:41:11;9.35;;;6.72;;
28130;SDS011;15418;42.634;23.374;2022-09-03T09:43:37;7.65;;;6.47;;
28130;SDS011;15418;42.634;23.374;2022-09-03T09:46:22;10.88;;;6.85;;
28130;SDS011;15418;42.634;23.374;2022-09-03T09:48:55;8.02;;;5.90;;
28130;SDS011;15418;42.634;23.374;2022-09-03T09:51:27;8.35;;;5.60;;
28130;SDS011;15418;42.634;23.374;2022-09-03T09:56:43;11.80;;;6.93;;
28130;SDS011;15418;42.634;23.374;2022-09-03T09:59:09;7.90;;;6.50;;
28130;SDS011;15418;42.634;23.374;2022-09-03T10:01:37;7.10;;;6.40;;
28130;SDS011;15418;42.634;23.374;2022-09-03T10:04:12;16.33;;;7.38;;
28130;SDS011;15418;42.634;23.374;2022-09-03T10:06:52;10.88;;;6.63;;
28130;SDS011;15418;42.634;23.374;2022-09-03T10:09:38;21.17;;;7.43;;
28130;SDS011;15418;42.634;23.374;2022-09-03T10:15:07;10.43;;;7.40;;
28130;SDS011;15418;42.634;23.374;2022-09-03T10:23:09;10.27;;;6.47;;
28130;SDS011;15418;42.634;23.374;2022-09-03T10:28:24;9.23;;;6.50;;
28130;SDS011;15418;42.634;23.374;2022-09-03T10:33:48;12.70;;;6.75;;
28130;SDS011;15418;42.634;23.374;2022-09-03T10:36:22;7.90;;;6.57;;
28130;SDS011;15418;42.634;23.374;2022-09-03T10:38:54;10.52;;;7.70;;
28130;SDS011;15418;42.634;23.374;2022-09-03T10:49:28;9.40;;;6.13;;
28130;SDS011;15418;42.634;23.374;2022-09-03T10:52:12;8.07;;;6.43;;
28130;SDS011;15418;42.634;23.374;2022-09-03T10:55:19;15.18;;;7.50;;
28130;SDS011;15418;42.634;23.374;2022-09-03T10:58:12;8.20;;;7.10;;
28130;SDS011;15418;42.634;23.374;2022-09-03T11:01:08;11.60;;;7.03;;
28130;SDS011;15418;42.634;23.374;2022-09-03T11:06:53;10.25;;;7.25;;
28130;SDS011;15418;42.634;23.374;2022-09-03T11:09:36;9.13;;;6.97;;
28130;SDS011;15418;42.634;23.374;2022-09-03T11:12:14;12.65;;;6.32;;
28130;SDS011;15418;42.634;23.374;2022-09-03T11:14:44;7.30;;;5.90;;
28130;SDS011;15418;42.634;23.374;2022-09-03T11:22:34;6.45;;;5.75;;
28130;SDS011;15418;42.634;23.374;2022-09-03T11:25:02;10.40;;;5.75;;
28130;SDS011;15418;42.634;23.374;2022-09-03T11:30:12;6.20;;;5.60;;
28130;SDS011;15418;42.634;23.374;2022-09-03T11:32:48;7.00;;;5.88;;
28130;SDS011;15418;42.634;23.374;2022-09-03T11:35:53;7.72;;;5.88;;
28130;SDS011;15418;42.634;23.374;2022-09-03T11:41:00;8.50;;;5.40;;
28130;SDS011;15418;42.634;23.374;2022-09-03T11:43:49;7.30;;;5.00;;
28130;SDS011;15418;42.634;23.374;2022-09-03T11:48:47;9.80;;;6.22;;
28130;SDS011;15418;42.634;23.374;2022-09-03T11:53:56;6.15;;;4.95;;
28130;SDS011;15418;42.634;23.374;2022-09-03T11:56:21;5.13;;;4.63;;
28130;SDS011;15418;42.634;23.374;2022-09-03T11:58:57;6.50;;;5.63;;
28130;SDS011;15418;42.634;23.374;2022-09-03T12:04:12;6.30;;;5.03;;
28130;SDS011;15418;42.634;23.374;2022-09-03T12:12:31;5.18;;;4.43;;
28130;SDS011;15418;42.634;23.374;2022-09-03T12:17:58;6.95;;;5.53;;
28130;SDS011;15418;42.634;23.374;2022-09-03T12:23:27;5.63;;;4.32;;
28130;SDS011;15418;42.634;23.374;2022-09-03T12:26:15;7.88;;;4.88;;
28130;SDS011;15418;42.634;23.374;2022-09-03T12:28:43;8.68;;;5.03;;
28130;SDS011;15418;42.634;23.374;2022-09-03T12:31:15;5.40;;;4.90;;
28130;SDS011;15418;42.634;23.374;2022-09-03T12:33:51;5.47;;;4.90;;
28130;SDS011;15418;42.634;23.374;2022-09-03T12:36:19;6.03;;;4.35;;
28130;SDS011;15418;42.634;23.374;2022-09-03T12:38:46;8.18;;;5.03;;
28130;SDS011;15418;42.634;23.374;2022-09-03T12:41:23;6.43;;;4.90;;
28130;SDS011;15418;42.634;23.374;2022-09-03T12:43:51;5.60;;;4.63;;
28130;SDS011;15418;42.634;23.374;2022-09-03T12:46:22;6.35;;;4.78;;
28130;SDS011;15418;42.634;23.374;2022-09-03T12:48:59;7.30;;;6.03;;
28130;SDS011;15418;42.634;23.374;2022-09-03T12:51:33;9.50;;;5.97;;
28130;SDS011;15418;42.634;23.374;2022-09-03T12:54:00;7.05;;;5.70;;
28130;SDS011;15418;42.634;23.374;2022-09-03T12:56:31;6.07;;;5.00;;
28130;SDS011;15418;42.634;23.374;2022-09-03T12:59:00;8.10;;;4.95;;
28130;SDS011;15418;42.634;23.374;2022-09-03T13:01:32;10.15;;;5.72;;
28130;SDS011;15418;42.634;23.374;2022-09-03T13:04:13;10.85;;;5.45;;
28130;SDS011;15418;42.634;23.374;2022-09-03T13:06:58;13.40;;;5.50;;
28130;SDS011;15418;42.634;23.374;2022-09-03T13:10:00;13.27;;;5.00;;
28130;SDS011;15418;42.634;23.374;2022-09-03T13:12:41;6.25;;;5.10;;
28130;SDS011;15418;42.634;23.374;2022-09-03T13:15:16;5.80;;;4.97;;
28130;SDS011;15418;42.634;23.374;2022-09-03T13:26:07;5.28;;;4.40;;
28130;SDS011;15418;42.634;23.374;2022-09-03T13:34:51;5.75;;;4.95;;
28130;SDS011;15418;42.634;23.374;2022-09-03T13:40:17;6.82;;;4.43;;
28130;SDS011;15418;42.634;23.374;2022-09-03T13:42:55;6.10;;;5.25;;
28130;SDS011;15418;42.634;23.374;2022-09-03T13:45:44;6.22;;;5.07;;
28130;SDS011;15418;42.634;23.374;2022-09-03T13:48:19;9.25;;;5.45;;
28130;SDS011;15418;42.634;23.374;2022-09-03T13:59:34;4.10;;;3.65;;
28130;SDS011;15418;42.634;23.374;2022-09-03T14:15:19;6.90;;;3.92;;
28130;SDS011;15418;42.634;23.374;2022-09-03T14:27:29;3.85;;;3.47;;
28130;SDS011;15418;42.634;23.374;2022-09-03T14:39:27;5.05;;;4.35;;
28130;SDS011;15418;42.634;23.374;2022-09-03T14:42:06;5.78;;;3.83;;
28130;SDS011;15418;42.634;23.374;2022-09-03T14:49:56;6.40;;;4.88;;
28130;SDS011;15418;42.634;23.374;2022-09-03T14:52:59;8.13;;;5.25;;
28130;SDS011;15418;42.634;23.374;2022-09-03T14:55:37;5.40;;;4.90;;
28130;SDS011;15418;42.634;23.374;2022-09-03T15:01:32;5.53;;;4.63;;
28130;SDS011;15418;42.634;23.374;2022-09-03T15:04:11;5.13;;;4.32;;
28130;SDS011;15418;42.634;23.374;2022-09-03T15:09:49;12.40;;;5.45;;
28130;SDS011;15418;42.634;23.374;2022-09-03T15:12:27;6.20;;;4.60;;
28130;SDS011;15418;42.634;23.374;2022-09-03T15:14:59;13.65;;;8.05;;
28130;SDS011;15418;42.634;23.374;2022-09-03T15:20:07;7.75;;;4.85;;
28130;SDS011;15418;42.634;23.374;2022-09-03T15:31:41;5.13;;;4.40;;
28130;SDS011;15418;42.634;23.374;2022-09-03T15:34:11;6.80;;;4.38;;
28130;SDS011;15418;42.634;23.374;2022-09-03T15:36:49;5.78;;;4.38;;
28130;SDS011;15418;42.634;23.374;2022-09-03T15:39:22;6.90;;;4.60;;
28130;SDS011;15418;42.634;23.374;2022-09-03T15:41:57;5.47;;;4.20;;
28130;SDS011;15418;42.634;23.374;2022-09-03T15:44:26;9.38;;;4.50;;
28130;SDS011;15418;42.634;23.374;2022-09-03T15:46:59;6.20;;;4.40;;
28130;SDS011;15418;42.634;23.374;2022-09-03T15:52:05;11.15;;;4.57;;
28130;SDS011;15418;42.634;23.374;2022-09-03T16:00:18;5.40;;;4.90;;
28130;SDS011;15418;42.634;23.374;2022-09-03T16:02:46;6.93;;;5.82;;
28130;SDS011;15418;42.634;23.374;2022-09-03T16:10:49;6.78;;;6.07;;
28130;SDS011;15418;42.634;23.374;2022-09-03T16:16:25;7.03;;;6.00;;
28130;SDS011;15418;42.634;23.374;2022-09-03T16:19:00;11.55;;;6.38;;
28130;SDS011;15418;42.634;23.374;2022-09-03T16:27:22;7.97;;;7.03;;
28130;SDS011;15418;42.634;23.374;2022-09-03T16:33:05;9.05;;;7.57;;
28130;SDS011;15418;42.634;23.374;2022-09-03T16:38:35;8.98;;;7.20;;
28130;SDS011;15418;42.634;23.374;2022-09-03T16:41:29;9.63;;;7.43;;
28130;SDS011;15418;42.634;23.374;2022-09-03T16:50:20;12.68;;;7.70;;
28130;SDS011;15418;42.634;23.374;2022-09-03T16:53:09;9.57;;;7.93;;
28130;SDS011;15418;42.634;23.374;2022-09-03T17:12:07;10.55;;;8.32;;
28130;SDS011;15418;42.634;23.374;2022-09-03T17:17:31;10.70;;;8.20;;
28130;SDS011;15418;42.634;23.374;2022-09-03T17:25:37;13.32;;;8.45;;
28130;SDS011;15418;42.634;23.374;2022-09-03T17:33:48;12.35;;;8.52;;
28130;SDS011;15418;42.634;23.374;2022-09-03T17:42:32;15.77;;;9.40;;
28130;SDS011;15418;42.634;23.374;2022-09-03T17:45:22;11.23;;;8.70;;
28130;SDS011;15418;42.634;23.374;2022-09-03T17:51:04;12.48;;;8.80;;
28130;SDS011;15418;42.634;23.374;2022-09-03T17:53:39;11.88;;;8.02;;
28130;SDS011;15418;42.634;23.374;2022-09-03T18:10:03;15.27;;;9.13;;
28130;SDS011;15418;42.634;23.374;2022-09-03T18:15:25;16.90;;;9.30;;
28130;SDS011;15418;42.634;23.374;2022-09-03T18:18:02;11.38;;;8.30;;
28130;SDS011;15418;42.634;23.374;2022-09-03T18:20:39;10.93;;;8.48;;
28130;SDS011;15418;42.634;23.374;2022-09-03T18:23:32;9.45;;;8.20;;
28130;SDS011;15418;42.634;23.374;2022-09-03T18:26:30;10.32;;;8.25;;
28130;SDS011;15418;42.634;23.374;2022-09-03T18:29:23;10.80;;;8.63;;
28130;SDS011;15418;42.634;23.374;2022-09-03T18:32:08;11.88;;;8.25;;
28130;SDS011;15418;42.634;23.374;2022-09-03T18:34:52;12.30;;;8.43;;
28130;SDS011;15418;42.634;23.374;2022-09-03T18:37:36;11.20;;;8.70;;
28130;SDS011;15418;42.634;23.374;2022-09-03T18:46:31;11.73;;;8.93;;
28130;SDS011;15418;42.634;23.374;2022-09-03T18:49:30;15.48;;;9.85;;
28130;SDS011;15418;42.634;23.374;2022-09-03T19:01:25;13.20;;;9.25;;
28130;SDS011;15418;42.634;23.374;2022-09-03T19:04:14;11.55;;;9.57;;
28130;SDS011;15418;42.634;23.374;2022-09-03T19:07:15;14.40;;;9.68;;
28130;SDS011;15418;42.634;23.374;2022-09-03T19:10:10;13.60;;;9.75;;
28130;SDS011;15418;42.634;23.374;2022-09-03T19:21:49;13.10;;;11.07;;
28130;SDS011;15418;42.634;23.374;2022-09-03T19:24:38;14.02;;;11.18;;
28130;SDS011;15418;42.634;23.374;2022-09-03T19:36:47;21.20;;;11.73;;
28130;SDS011;15418;42.634;23.374;2022-09-03T19:39:46;17.25;;;12.82;;
28130;SDS011;15418;42.634;23.374;2022-09-03T19:42:59;21.77;;;13.23;;
28130;SDS011;15418;42.634;23.374;2022-09-03T19:46:11;16.15;;;12.00;;
28130;SDS011;15418;42.634;23.374;2022-09-03T19:54:52;20.92;;;14.23;;
28130;SDS011;15418;42.634;23.374;2022-09-03T19:57:38;18.15;;;13.18;;
28130;SDS011;15418;42.634;23.374;2022-09-03T20:00:24;21.02;;;13.13;;
28130;SDS011;15418;42.634;23.374;2022-09-03T20:03:10;23.83;;;13.05;;
28130;SDS011;15418;42.634;23.374;2022-09-03T20:06:09;15.45;;;12.15;;
28130;SDS011;15418;42.634;23.374;2022-09-03T20:09:14;16.63;;;12.10;;
28130;SDS011;15418;42.634;23.374;2022-09-03T20:12:02;16.65;;;12.27;;
28130;SDS011;15418;42.634;23.374;2022-09-03T20:14:32;21.73;;;14.10;;
28130;SDS011;15418;42.634;23.374;2022-09-03T20:22:10;19.65;;;12.48;;
28130;SDS011;15418;42.634;23.374;2022-09-03T20:24:46;20.52;;;13.38;;
28130;SDS011;15418;42.634;23.374;2022-09-03T20:30:04;17.02;;;11.98;;
28130;SDS011;15418;42.634;23.374;2022-09-03T20:38:41;18.15;;;12.50;;
28130;SDS011;15418;42.634;23.374;2022-09-03T20:46:38;19.20;;;12.38;;
28130;SDS011;15418;42.634;23.374;2022-09-03T20:49:30;26.55;;;12.77;;
28130;SDS011;15418;42.634;23.374;2022-09-03T20:52:12;19.20;;;12.43;;
28130;SDS011;15418;42.634;23.374;2022-09-03T21:00:13;20.98;;;12.52;;
28130;SDS011;15418;42.634;23.374;2022-09-03T21:22:26;19.95;;;11.98;;
28130;SDS011;15418;42.634;23.374;2022-09-03T21:25:16;19.15;;;12.27;;
28130;SDS011;15418;42.634;23.374;2022-09-03T21:27:50;18.48;;;12.00;;
28130;SDS011;15418;42.634;23.374;2022-09-03T21:30:23;19.55;;;12.20;;
28130;SDS011;15418;42.634;23.374;2022-09-03T21:32:58;23.30;;;11.85;;
28130;SDS011;15418;42.634;23.374;2022-09-03T21:35:29;21.88;;;11.80;;